SPGKT EPDE-EPDE
Flight info
| Callsign | SPGKT |
|---|---|
| Flight time | 0h 4m |
| Altitude | 2500 |
| Route | STAY01/0015 EPDES EPDEG EPDEP EPRAZ EPRAH AEPRA STAY02/0015 EPRAH EPRAZ EPDEP EPDEG EPDES |
| Aircraft | DA40/L-SDGRY/S |
Departure
| Time | 2026-05-04 10:25 |
|---|---|
| Airport | Deblin Military Air Base (EPDE) |
Arrival
| Time | 2026-05-04 10:29 |
|---|---|
| Airport | Deblin Military Air Base (EPDE) |
| Time | Latitude | Longitude | Altitude | Speed | Heading |
|---|---|---|---|---|---|
| 2026-05-04 10:13 | 51.55401 | 21.87583 | 382 ft | 0 kts | 352° |
| 2026-05-04 10:21 | 51.55409 | 21.87582 | 387 ft | 3 kts | 358° |
| 2026-05-04 10:21 | 51.55415 | 21.87585 | 384 ft | 1 kts | 26° |
| 2026-05-04 10:22 | 51.55485 | 21.87713 | 379 ft | 20 kts | 15° |
| 2026-05-04 10:22 | 51.55574 | 21.87750 | 379 ft | 0 kts | 18° |
| 2026-05-04 10:25 | 51.54480 | 21.90850 | 825 ft | 108 kts | 131° |
| 2026-05-04 10:25 | 51.53998 | 21.91741 | 1061 ft | 101 kts | 168° |
| 2026-05-04 10:25 | 51.53330 | 21.91546 | 1255 ft | 101 kts | 205° |
| 2026-05-04 10:25 | 51.52693 | 21.91025 | 1346 ft | 104 kts | 212° |
| 2026-05-04 10:26 | 51.52227 | 21.90201 | 1402 ft | 112 kts | 258° |
| 2026-05-04 10:26 | 51.52608 | 21.88994 | 1361 ft | 133 kts | 303° |
| 2026-05-04 10:26 | 51.53181 | 21.87976 | 1450 ft | 111 kts | 302° |
| 2026-05-04 10:26 | 51.53654 | 21.87054 | 1487 ft | 105 kts | 298° |
| 2026-05-04 10:27 | 51.54104 | 21.86105 | 1407 ft | 109 kts | 297° |
| 2026-05-04 10:27 | 51.54568 | 21.85147 | 1352 ft | 107 kts | 298° |
| 2026-05-04 10:27 | 51.55058 | 21.84174 | 1381 ft | 114 kts | 301° |
| 2026-05-04 10:27 | 51.55569 | 21.83160 | 1441 ft | 119 kts | 298° |
| 2026-05-04 10:28 | 51.56321 | 21.82665 | 1382 ft | 125 kts | 8° |
| 2026-05-04 10:28 | 51.57012 | 21.83471 | 1151 ft | 126 kts | 62° |
| 2026-05-04 10:28 | 51.56979 | 21.84651 | 1045 ft | 105 kts | 134° |
| 2026-05-04 10:28 | 51.56513 | 21.85564 | 799 ft | 106 kts | 135° |
| 2026-05-04 10:29 | 51.56114 | 21.86516 | 560 ft | 98 kts | 131° |
| 2026-05-04 10:29 | 51.55786 | 21.87393 | 458 ft | 86 kts | 130° |
| 2026-05-04 10:29 | 51.55490 | 21.88162 | 378 ft | 60 kts | 119° |
| 2026-05-04 10:29 | 51.55411 | 21.88398 | 378 ft | 8 kts | 120° |
| 2026-05-04 10:30 | 51.55275 | 21.88761 | 379 ft | 65 kts | 120° |
| 2026-05-04 10:30 | 51.54985 | 21.89563 | 463 ft | 93 kts | 127° |
| 2026-05-04 10:30 | 51.54537 | 21.90322 | 594 ft | 94 kts | 179° |
| 2026-05-04 10:30 | 51.53940 | 21.89898 | 679 ft | 103 kts | 214° |
| 2026-05-04 10:31 | 51.53331 | 21.89253 | 718 ft | 107 kts | 213° |
| 2026-05-04 10:31 | 51.52741 | 21.88624 | 903 ft | 98 kts | 217° |
| 2026-05-04 10:32 | 51.55130 | 21.82597 | 2039 ft | 125 kts | 305° |
| 2026-05-04 10:33 | 51.56006 | 21.82109 | 2031 ft | 156 kts | 4° |
| 2026-05-04 10:33 | 51.56861 | 21.83007 | 1855 ft | 140 kts | 68° |
| 2026-05-04 10:33 | 51.56875 | 21.84479 | 1418 ft | 138 kts | 116° |
| 2026-05-04 10:33 | 51.56391 | 21.85840 | 902 ft | 140 kts | 130° |
| 2026-05-04 10:34 | 51.55869 | 21.87168 | 560 ft | 146 kts | 126° |
| 2026-05-04 10:34 | 51.55342 | 21.88585 | 469 ft | 147 kts | 126° |
| 2026-05-04 10:34 | 51.54826 | 21.89968 | 506 ft | 142 kts | 125° |
| 2026-05-04 10:34 | 51.54302 | 21.91287 | 592 ft | 134 kts | 137° |
| 2026-05-04 10:35 | 51.53536 | 21.91624 | 857 ft | 111 kts | 206° |
| 2026-05-04 10:35 | 51.52920 | 21.90954 | 1039 ft | 104 kts | 217° |
| 2026-05-04 10:35 | 51.52464 | 21.90131 | 1085 ft | 106 kts | 253° |
| 2026-05-04 10:35 | 51.52718 | 21.88960 | 1089 ft | 122 kts | 302° |
| 2026-05-04 10:36 | 51.53242 | 21.87911 | 1273 ft | 120 kts | 302° |
| 2026-05-04 10:36 | 51.53786 | 21.86901 | 1524 ft | 121 kts | 303° |
| 2026-05-04 10:36 | 51.54383 | 21.85852 | 1552 ft | 132 kts | 303° |
| 2026-05-04 10:36 | 51.55004 | 21.84738 | 1653 ft | 134 kts | 301° |
| 2026-05-04 10:37 | 51.55574 | 21.83560 | 1880 ft | 134 kts | 300° |
| 2026-05-04 10:37 | 51.56148 | 21.82415 | 1723 ft | 130 kts | 309° |
| 2026-05-04 10:37 | 51.57012 | 21.82070 | 1395 ft | 137 kts | 9° |
| 2026-05-04 10:37 | 51.57642 | 21.83079 | 1204 ft | 126 kts | 92° |
| 2026-05-04 10:39 | 51.55309 | 21.88644 | 379 ft | 76 kts | 119° |
| 2026-05-04 10:39 | 51.55010 | 21.89487 | 501 ft | 91 kts | 126° |
| 2026-05-04 10:39 | 51.54643 | 21.90431 | 602 ft | 108 kts | 133° |
| 2026-05-04 10:40 | 51.54200 | 21.91487 | 738 ft | 114 kts | 134° |
| 2026-05-04 10:40 | 51.53517 | 21.91695 | 772 ft | 118 kts | 213° |
| 2026-05-04 10:40 | 51.52825 | 21.90907 | 790 ft | 121 kts | 219° |
| 2026-05-04 10:40 | 51.52615 | 21.89694 | 664 ft | 129 kts | 284° |
| 2026-05-04 10:41 | 51.53213 | 21.88538 | 633 ft | 131 kts | 307° |
| 2026-05-04 10:41 | 51.53807 | 21.87537 | 799 ft | 120 kts | 308° |
| 2026-05-04 10:41 | 51.54227 | 21.86930 | 881 ft | 120 kts | 308° |
| 2026-05-04 10:41 | 51.54762 | 21.85884 | 993 ft | 124 kts | 303° |
| 2026-05-04 10:42 | 51.55308 | 21.84825 | 1138 ft | 124 kts | 300° |
| 2026-05-04 10:42 | 51.55847 | 21.83716 | 1254 ft | 129 kts | 301° |
| 2026-05-04 10:42 | 51.56575 | 21.82775 | 1181 ft | 155 kts | 343° |
| 2026-05-04 10:42 | 51.57551 | 21.83265 | 1055 ft | 142 kts | 37° |
| 2026-05-04 10:43 | 51.57429 | 21.84176 | 999 ft | 96 kts | 154° |
| 2026-05-04 10:44 | 51.54541 | 21.90737 | 684 ft | 105 kts | 132° |
| 2026-05-04 10:45 | 51.53997 | 21.91489 | 859 ft | 105 kts | 162° |
| 2026-05-04 10:45 | 51.53277 | 21.91522 | 1003 ft | 107 kts | 202° |
| 2026-05-04 10:45 | 51.52696 | 21.90779 | 1097 ft | 108 kts | 223° |
| 2026-05-04 10:45 | 51.52145 | 21.89965 | 1123 ft | 107 kts | 221° |
| 2026-05-04 10:46 | 51.51607 | 21.89181 | 1247 ft | 106 kts | 223° |
| 2026-05-04 10:46 | 51.51041 | 21.88391 | 1371 ft | 110 kts | 219° |
| 2026-05-04 10:46 | 51.50470 | 21.87521 | 1489 ft | 114 kts | 223° |
| 2026-05-04 10:46 | 51.49886 | 21.86643 | 1621 ft | 116 kts | 216° |
| 2026-05-04 10:47 | 51.49087 | 21.86481 | 1749 ft | 122 kts | 176° |
| 2026-05-04 10:47 | 51.48284 | 21.86999 | 1876 ft | 129 kts | 154° |
| 2026-05-04 10:47 | 51.47526 | 21.87787 | 2006 ft | 130 kts | 154° |
| 2026-05-04 10:47 | 51.46770 | 21.88561 | 2131 ft | 129 kts | 155° |
| 2026-05-04 10:49 | 51.40990 | 21.91632 | 2494 ft | 106 kts | 219° |
| 2026-05-04 10:49 | 51.40694 | 21.90502 | 2495 ft | 119 kts | 258° |
| 2026-05-04 10:50 | 51.40591 | 21.89162 | 2486 ft | 122 kts | 257° |
| 2026-05-04 10:51 | 51.39766 | 21.80182 | 2483 ft | 113 kts | 253° |
| 2026-05-04 10:52 | 51.39631 | 21.78980 | 2475 ft | 104 kts | 252° |
| 2026-05-04 10:52 | 51.39479 | 21.77849 | 2479 ft | 105 kts | 252° |
| 2026-05-04 10:52 | 51.39322 | 21.76662 | 2499 ft | 114 kts | 251° |
| 2026-05-04 10:54 | 51.38004 | 21.68184 | 2499 ft | 111 kts | 251° |
| 2026-05-04 10:54 | 51.37828 | 21.67085 | 2484 ft | 93 kts | 251° |
| 2026-05-04 10:56 | 51.36591 | 21.58818 | 2486 ft | 117 kts | 250° |
| 2026-05-04 10:56 | 51.36430 | 21.57569 | 2493 ft | 117 kts | 261° |
| 2026-05-04 10:56 | 51.36573 | 21.56255 | 2496 ft | 118 kts | 269° |
| 2026-05-04 10:57 | 51.36547 | 21.54989 | 2490 ft | 112 kts | 251° |
| 2026-05-04 10:57 | 51.36347 | 21.53795 | 2499 ft | 110 kts | 250° |
| 2026-05-04 10:57 | 51.36144 | 21.52586 | 2502 ft | 115 kts | 249° |
| 2026-05-04 10:57 | 51.35944 | 21.51383 | 2497 ft | 107 kts | 250° |
| 2026-05-04 10:58 | 51.35762 | 21.50213 | 2499 ft | 111 kts | 249° |
| 2026-05-04 10:58 | 51.35580 | 21.48996 | 2507 ft | 115 kts | 250° |
| 2026-05-04 10:58 | 51.35397 | 21.47743 | 2506 ft | 116 kts | 250° |
| 2026-05-04 10:58 | 51.35218 | 21.46497 | 2503 ft | 112 kts | 250° |
| 2026-05-04 10:59 | 51.35000 | 21.45305 | 2508 ft | 113 kts | 246° |
| 2026-05-04 10:59 | 51.34747 | 21.44146 | 2502 ft | 110 kts | 245° |
| 2026-05-04 10:59 | 51.34504 | 21.42976 | 2509 ft | 113 kts | 246° |
| 2026-05-04 10:59 | 51.34254 | 21.41800 | 2509 ft | 110 kts | 245° |
| 2026-05-04 11:00 | 51.33991 | 21.40614 | 2512 ft | 115 kts | 246° |
| 2026-05-04 11:01 | 51.32197 | 21.32331 | 2503 ft | 110 kts | 244° |
| 2026-05-04 11:02 | 51.31939 | 21.31176 | 2513 ft | 110 kts | 243° |
| 2026-05-04 11:02 | 51.31613 | 21.30036 | 2521 ft | 114 kts | 237° |
| 2026-05-04 11:05 | 51.37603 | 21.21020 | 1343 ft | 138 kts | 75° |
| 2026-05-04 11:06 | 51.37836 | 21.22414 | 1227 ft | 121 kts | 81° |
| 2026-05-04 11:06 | 51.38042 | 21.23730 | 1157 ft | 126 kts | 78° |
| 2026-05-04 11:06 | 51.38272 | 21.25101 | 1205 ft | 130 kts | 77° |
| 2026-05-04 11:06 | 51.38514 | 21.26517 | 1229 ft | 133 kts | 75° |
| 2026-05-04 11:08 | 51.38838 | 21.20818 | 685 ft | 109 kts | 250° |
| 2026-05-04 11:10 | 51.37331 | 21.23104 | 1087 ft | 110 kts | 66° |
| 2026-05-04 11:12 | 51.39516 | 21.24935 | 793 ft | 107 kts | 252° |
| 2026-05-04 11:12 | 51.39349 | 21.23887 | 720 ft | 88 kts | 252° |
| 2026-05-04 11:12 | 51.39201 | 21.23018 | 657 ft | 74 kts | 252° |
| 2026-05-04 11:12 | 51.39083 | 21.22301 | 617 ft | 61 kts | 250° |
| 2026-05-04 11:13 | 51.38959 | 21.21614 | 612 ft | 81 kts | 256° |
| 2026-05-04 11:13 | 51.38840 | 21.20688 | 819 ft | 86 kts | 251° |
| 2026-05-04 11:13 | 51.38653 | 21.19708 | 943 ft | 99 kts | 251° |
| 2026-05-04 11:13 | 51.38224 | 21.18830 | 1064 ft | 111 kts | 200° |
| 2026-05-04 11:14 | 51.36077 | 21.20609 | 1361 ft | 121 kts | 152° |
| 2026-05-04 11:16 | 51.31872 | 21.23898 | 2413 ft | 85 kts | 167° |
| 2026-05-04 11:16 | 51.31246 | 21.24219 | 2489 ft | 107 kts | 167° |
| 2026-05-04 11:16 | 51.30481 | 21.24612 | 2494 ft | 126 kts | 162° |
| 2026-05-04 11:17 | 51.29882 | 21.25746 | 2492 ft | 147 kts | 111° |
| 2026-05-04 11:17 | 51.29975 | 21.27412 | 2489 ft | 158 kts | 74° |
| 2026-05-04 11:19 | 51.32660 | 21.38044 | 2482 ft | 141 kts | 73° |
| 2026-05-04 11:19 | 51.33016 | 21.39538 | 2483 ft | 145 kts | 73° |
| 2026-05-04 11:19 | 51.33371 | 21.41065 | 2486 ft | 147 kts | 75° |
| 2026-05-04 11:19 | 51.33724 | 21.42589 | 2479 ft | 144 kts | 74° |
| 2026-05-04 11:20 | 51.34057 | 21.44093 | 2482 ft | 142 kts | 74° |
| 2026-05-04 11:20 | 51.34372 | 21.45586 | 2484 ft | 144 kts | 76° |
| 2026-05-04 11:20 | 51.34710 | 21.47120 | 2482 ft | 147 kts | 75° |
| 2026-05-04 11:20 | 51.35050 | 21.48645 | 2487 ft | 146 kts | 74° |
| 2026-05-04 11:22 | 51.37083 | 21.59821 | 2486 ft | 146 kts | 81° |
| 2026-05-04 11:22 | 51.37322 | 21.61400 | 2488 ft | 148 kts | 80° |
| 2026-05-04 11:23 | 51.37566 | 21.62985 | 2478 ft | 148 kts | 81° |
| 2026-05-04 11:23 | 51.37815 | 21.64595 | 2475 ft | 145 kts | 81° |
| 2026-05-04 11:24 | 51.39382 | 21.74080 | 2476 ft | 145 kts | 81° |
| 2026-05-04 11:25 | 51.39659 | 21.75641 | 2473 ft | 145 kts | 78° |
| 2026-05-04 11:25 | 51.39835 | 21.76682 | 2483 ft | 142 kts | 80° |
| 2026-05-04 11:25 | 51.40090 | 21.78211 | 2490 ft | 148 kts | 79° |
| 2026-05-04 11:26 | 51.40721 | 21.81387 | 2461 ft | 155 kts | 56° |
| 2026-05-04 11:27 | 51.46543 | 21.88976 | 2481 ft | 158 kts | 39° |
| 2026-05-04 11:28 | 51.47385 | 21.90087 | 2471 ft | 155 kts | 39° |
| 2026-05-04 11:28 | 51.48231 | 21.91097 | 2473 ft | 155 kts | 30° |
| 2026-05-04 11:28 | 51.49259 | 21.91392 | 2460 ft | 146 kts | 340° |
| 2026-05-04 11:28 | 51.50157 | 21.90830 | 2396 ft | 137 kts | 329° |
| 2026-05-04 11:29 | 51.50990 | 21.90264 | 2140 ft | 125 kts | 325° |
| 2026-05-04 11:29 | 51.51709 | 21.89472 | 1811 ft | 129 kts | 308° |
| 2026-05-04 11:29 | 51.52365 | 21.88444 | 1388 ft | 133 kts | 304° |
| 2026-05-04 11:29 | 51.52849 | 21.87246 | 975 ft | 119 kts | 280° |
| 2026-05-04 11:31 | 51.53631 | 21.92156 | 715 ft | 114 kts | 353° |
| 2026-05-04 11:33 | 51.55242 | 21.88655 | 379 ft | 4 kts | 207° |
| 2026-05-04 11:33 | 51.55219 | 21.88633 | 379 ft | 0 kts | 211° |
| 2026-05-04 11:33 | 51.55216 | 21.88631 | 379 ft | 7 kts | 211° |
| 2026-05-04 11:34 | 51.55129 | 21.88516 | 378 ft | 16 kts | 264° |
| 2026-05-04 11:34 | 51.55178 | 21.88360 | 378 ft | 16 kts | 299° |
| 2026-05-04 11:34 | 51.55237 | 21.88197 | 378 ft | 17 kts | 300° |
| 2026-05-04 11:34 | 51.55301 | 21.88029 | 378 ft | 18 kts | 300° |
| 2026-05-04 11:35 | 51.55366 | 21.87853 | 378 ft | 19 kts | 300° |
| 2026-05-04 11:35 | 51.55398 | 21.87768 | 378 ft | 0 kts | 300° |
| 2026-05-04 11:36 | 51.55416 | 21.87713 | 378 ft | 13 kts | 292° |
| 2026-05-04 11:36 | 51.55419 | 21.87584 | 378 ft | 12 kts | 265° |
| 2026-05-04 11:37 | 51.55404 | 21.87524 | 378 ft | 3 kts | 205° |
| 2026-05-04 11:37 | 51.55398 | 21.87522 | 378 ft | 0 kts | 173° |